sensor_id;sensor_type;location;lat;lon;timestamp;P1;durP1;ratioP1;P2;durP2;ratioP2
14890;SDS011;7537;48.014;11.590;2023-06-24T00:02:42;3.17;;;3.07;;
14890;SDS011;7537;48.014;11.590;2023-06-24T00:08:10;2.58;;;2.69;;
14890;SDS011;7537;48.014;11.590;2023-06-24T00:13:42;2.14;;;2.29;;
14890;SDS011;7537;48.014;11.590;2023-06-24T00:19:10;2.61;;;2.77;;
14890;SDS011;7537;48.014;11.590;2023-06-24T00:24:37;3.36;;;2.82;;
14890;SDS011;7537;48.014;11.590;2023-06-24T00:30:06;3.21;;;2.86;;
14890;SDS011;7537;48.014;11.590;2023-06-24T00:35:34;2.30;;;2.39;;
14890;SDS011;7537;48.014;11.590;2023-06-24T00:41:01;2.43;;;2.51;;
14890;SDS011;7537;48.014;11.590;2023-06-24T00:46:29;2.53;;;2.62;;
14890;SDS011;7537;48.014;11.590;2023-06-24T00:51:59;3.61;;;2.28;;
14890;SDS011;7537;48.014;11.590;2023-06-24T00:57:27;2.68;;;2.78;;
14890;SDS011;7537;48.014;11.590;2023-06-24T01:02:54;2.79;;;2.87;;
14890;SDS011;7537;48.014;11.590;2023-06-24T01:08:22;2.93;;;2.70;;
14890;SDS011;7537;48.014;11.590;2023-06-24T01:13:49;3.50;;;3.06;;
14890;SDS011;7537;48.014;11.590;2023-06-24T01:19:22;2.76;;;2.82;;
14890;SDS011;7537;48.014;11.590;2023-06-24T01:25:00;3.04;;;3.18;;
14890;SDS011;7537;48.014;11.590;2023-06-24T01:30:34;3.40;;;3.01;;
14890;SDS011;7537;48.014;11.590;2023-06-24T01:36:05;3.14;;;3.16;;
14890;SDS011;7537;48.014;11.590;2023-06-24T01:41:35;3.93;;;3.38;;
14890;SDS011;7537;48.014;11.590;2023-06-24T01:47:04;3.78;;;3.31;;
14890;SDS011;7537;48.014;11.590;2023-06-24T01:52:35;3.50;;;3.62;;
14890;SDS011;7537;48.014;11.590;2023-06-24T01:58:04;3.46;;;3.58;;
14890;SDS011;7537;48.014;11.590;2023-06-24T02:03:32;3.25;;;3.21;;
14890;SDS011;7537;48.014;11.590;2023-06-24T02:09:00;3.31;;;3.39;;
14890;SDS011;7537;48.014;11.590;2023-06-24T02:14:29;3.49;;;3.49;;
14890;SDS011;7537;48.014;11.590;2023-06-24T02:19:57;3.02;;;3.07;;
14890;SDS011;7537;48.014;11.590;2023-06-24T02:25:25;3.59;;;3.66;;
14890;SDS011;7537;48.014;11.590;2023-06-24T02:30:53;3.56;;;3.64;;
14890;SDS011;7537;48.014;11.590;2023-06-24T02:36:21;4.62;;;3.78;;
14890;SDS011;7537;48.014;11.590;2023-06-24T02:41:48;3.01;;;3.22;;
14890;SDS011;7537;48.014;11.590;2023-06-24T02:47:16;3.16;;;3.24;;
14890;SDS011;7537;48.014;11.590;2023-06-24T02:52:49;3.12;;;3.27;;
14890;SDS011;7537;48.014;11.590;2023-06-24T02:58:18;3.09;;;3.04;;
14890;SDS011;7537;48.014;11.590;2023-06-24T03:03:45;3.32;;;3.24;;
14890;SDS011;7537;48.014;11.590;2023-06-24T03:09:14;4.48;;;3.96;;
14890;SDS011;7537;48.014;11.590;2023-06-24T03:14:41;3.01;;;3.20;;
14890;SDS011;7537;48.014;11.590;2023-06-24T03:20:09;3.53;;;3.33;;
14890;SDS011;7537;48.014;11.590;2023-06-24T03:25:37;3.49;;;3.64;;
14890;SDS011;7537;48.014;11.590;2023-06-24T03:31:04;3.23;;;3.39;;
14890;SDS011;7537;48.014;11.590;2023-06-24T03:36:38;3.25;;;3.44;;
14890;SDS011;7537;48.014;11.590;2023-06-24T03:42:05;3.18;;;3.27;;
14890;SDS011;7537;48.014;11.590;2023-06-24T03:47:33;3.40;;;3.51;;
14890;SDS011;7537;48.014;11.590;2023-06-24T03:53:05;3.39;;;3.46;;
14890;SDS011;7537;48.014;11.590;2023-06-24T03:58:33;3.87;;;3.38;;
14890;SDS011;7537;48.014;11.590;2023-06-24T04:04:03;3.11;;;3.24;;
14890;SDS011;7537;48.014;11.590;2023-06-24T04:09:32;3.64;;;3.70;;
14890;SDS011;7537;48.014;11.590;2023-06-24T04:15:00;3.45;;;3.54;;
14890;SDS011;7537;48.014;11.590;2023-06-24T04:20:28;3.39;;;3.45;;
14890;SDS011;7537;48.014;11.590;2023-06-24T04:25:55;3.44;;;3.36;;
14890;SDS011;7537;48.014;11.590;2023-06-24T04:31:24;3.33;;;3.11;;
14890;SDS011;7537;48.014;11.590;2023-06-24T04:36:52;4.60;;;3.37;;
14890;SDS011;7537;48.014;11.590;2023-06-24T04:42:26;3.98;;;3.74;;
14890;SDS011;7537;48.014;11.590;2023-06-24T04:47:53;4.65;;;3.24;;
14890;SDS011;7537;48.014;11.590;2023-06-24T04:53:24;4.79;;;3.72;;
14890;SDS011;7537;48.014;11.590;2023-06-24T04:58:53;3.61;;;3.64;;
14890;SDS011;7537;48.014;11.590;2023-06-24T05:04:21;2.99;;;3.16;;
14890;SDS011;7537;48.014;11.590;2023-06-24T05:09:49;3.05;;;2.96;;
14890;SDS011;7537;48.014;11.590;2023-06-24T05:15:16;3.61;;;3.61;;
14890;SDS011;7537;48.014;11.590;2023-06-24T05:20:44;3.84;;;3.26;;
14890;SDS011;7537;48.014;11.590;2023-06-24T05:26:11;3.34;;;3.39;;
14890;SDS011;7537;48.014;11.590;2023-06-24T05:31:39;3.25;;;3.27;;
14890;SDS011;7537;48.014;11.590;2023-06-24T05:37:07;3.84;;;3.62;;
14890;SDS011;7537;48.014;11.590;2023-06-24T05:42:34;3.23;;;3.13;;
14890;SDS011;7537;48.014;11.590;2023-06-24T05:48:08;3.29;;;3.37;;
14890;SDS011;7537;48.014;11.590;2023-06-24T05:53:44;2.74;;;2.87;;
14890;SDS011;7537;48.014;11.590;2023-06-24T05:59:11;3.52;;;3.64;;
14890;SDS011;7537;48.014;11.590;2023-06-24T06:04:39;3.45;;;3.42;;
14890;SDS011;7537;48.014;11.590;2023-06-24T06:10:07;4.22;;;4.19;;
14890;SDS011;7537;48.014;11.590;2023-06-24T06:15:34;3.76;;;3.89;;
14890;SDS011;7537;48.014;11.590;2023-06-24T06:21:02;3.51;;;3.58;;
14890;SDS011;7537;48.014;11.590;2023-06-24T06:26:29;4.86;;;3.30;;
14890;SDS011;7537;48.014;11.590;2023-06-24T06:31:57;3.56;;;3.64;;
14890;SDS011;7537;48.014;11.590;2023-06-24T06:37:24;3.99;;;3.64;;
14890;SDS011;7537;48.014;11.590;2023-06-24T06:42:52;4.01;;;4.11;;
14890;SDS011;7537;48.014;11.590;2023-06-24T06:48:20;4.11;;;3.26;;
14890;SDS011;7537;48.014;11.590;2023-06-24T06:53:52;4.28;;;3.87;;
14890;SDS011;7537;48.014;11.590;2023-06-24T06:59:20;3.62;;;3.61;;
14890;SDS011;7537;48.014;11.590;2023-06-24T07:04:48;3.90;;;4.00;;
14890;SDS011;7537;48.014;11.590;2023-06-24T07:10:16;4.18;;;4.31;;
14890;SDS011;7537;48.014;11.590;2023-06-24T07:15:45;2.90;;;3.08;;
14890;SDS011;7537;48.014;11.590;2023-06-24T07:21:12;2.82;;;2.90;;
14890;SDS011;7537;48.014;11.590;2023-06-24T07:26:41;3.78;;;2.97;;
14890;SDS011;7537;48.014;11.590;2023-06-24T07:32:09;5.32;;;3.62;;
14890;SDS011;7537;48.014;11.590;2023-06-24T07:37:37;3.67;;;3.21;;
14890;SDS011;7537;48.014;11.590;2023-06-24T07:43:05;3.28;;;3.39;;
14890;SDS011;7537;48.014;11.590;2023-06-24T07:48:37;3.61;;;2.85;;
14890;SDS011;7537;48.014;11.590;2023-06-24T07:54:08;3.05;;;3.22;;
14890;SDS011;7537;48.014;11.590;2023-06-24T07:59:36;2.28;;;2.29;;
14890;SDS011;7537;48.014;11.590;2023-06-24T08:05:04;3.45;;;2.69;;
14890;SDS011;7537;48.014;11.590;2023-06-24T08:10:33;3.53;;;3.32;;
14890;SDS011;7537;48.014;11.590;2023-06-24T08:16:01;2.69;;;2.79;;
14890;SDS011;7537;48.014;11.590;2023-06-24T08:21:28;3.02;;;3.17;;
14890;SDS011;7537;48.014;11.590;2023-06-24T08:26:56;3.22;;;3.22;;
14890;SDS011;7537;48.014;11.590;2023-06-24T08:32:24;2.54;;;2.49;;
14890;SDS011;7537;48.014;11.590;2023-06-24T08:37:51;3.01;;;2.65;;
14890;SDS011;7537;48.014;11.590;2023-06-24T08:43:18;2.98;;;3.09;;
14890;SDS011;7537;48.014;11.590;2023-06-24T08:48:47;2.98;;;3.11;;
14890;SDS011;7537;48.014;11.590;2023-06-24T08:54:18;3.36;;;3.48;;
14890;SDS011;7537;48.014;11.590;2023-06-24T08:59:46;2.96;;;3.04;;
14890;SDS011;7537;48.014;11.590;2023-06-24T09:05:14;3.42;;;3.49;;
14890;SDS011;7537;48.014;11.590;2023-06-24T09:10:44;3.48;;;3.58;;
14890;SDS011;7537;48.014;11.590;2023-06-24T09:16:12;3.36;;;2.68;;
14890;SDS011;7537;48.014;11.590;2023-06-24T09:21:40;3.26;;;3.42;;
14890;SDS011;7537;48.014;11.590;2023-06-24T09:27:16;3.22;;;3.35;;
14890;SDS011;7537;48.014;11.590;2023-06-24T09:32:44;5.16;;;3.87;;
14890;SDS011;7537;48.014;11.590;2023-06-24T09:38:11;3.78;;;3.18;;
14890;SDS011;7537;48.014;11.590;2023-06-24T09:43:40;2.90;;;2.98;;
14890;SDS011;7537;48.014;11.590;2023-06-24T09:49:08;2.86;;;2.97;;
14890;SDS011;7537;48.014;11.590;2023-06-24T09:54:39;2.47;;;2.57;;
14890;SDS011;7537;48.014;11.590;2023-06-24T10:00:09;3.07;;;2.93;;
14890;SDS011;7537;48.014;11.590;2023-06-24T10:05:38;3.31;;;3.34;;
14890;SDS011;7537;48.014;11.590;2023-06-24T10:11:06;3.49;;;3.08;;
14890;SDS011;7537;48.014;11.590;2023-06-24T10:16:33;4.00;;;4.00;;
14890;SDS011;7537;48.014;11.590;2023-06-24T10:22:01;2.92;;;3.04;;
14890;SDS011;7537;48.014;11.590;2023-06-24T10:27:37;3.82;;;3.89;;
14890;SDS011;7537;48.014;11.590;2023-06-24T10:33:05;3.51;;;3.68;;
14890;SDS011;7537;48.014;11.590;2023-06-24T10:38:38;3.43;;;3.34;;
14890;SDS011;7537;48.014;11.590;2023-06-24T10:44:15;3.16;;;3.27;;
14890;SDS011;7537;48.014;11.590;2023-06-24T10:49:42;3.37;;;3.48;;
14890;SDS011;7537;48.014;11.590;2023-06-24T10:55:13;2.72;;;2.84;;
14890;SDS011;7537;48.014;11.590;2023-06-24T11:00:47;6.67;;;4.13;;
14890;SDS011;7537;48.014;11.590;2023-06-24T11:06:15;7.57;;;3.81;;
14890;SDS011;7537;48.014;11.590;2023-06-24T11:11:43;3.57;;;3.68;;
14890;SDS011;7537;48.014;11.590;2023-06-24T11:17:10;3.60;;;3.24;;
14890;SDS011;7537;48.014;11.590;2023-06-24T11:22:38;3.03;;;3.17;;
14890;SDS011;7537;48.014;11.590;2023-06-24T11:28:06;3.06;;;3.18;;
14890;SDS011;7537;48.014;11.590;2023-06-24T11:33:39;3.20;;;3.26;;
14890;SDS011;7537;48.014;11.590;2023-06-24T11:39:06;3.56;;;3.72;;
14890;SDS011;7537;48.014;11.590;2023-06-24T11:44:34;3.51;;;3.62;;
14890;SDS011;7537;48.014;11.590;2023-06-24T11:50:05;3.12;;;3.17;;
14890;SDS011;7537;48.014;11.590;2023-06-24T11:55:41;2.92;;;3.13;;
14890;SDS011;7537;48.014;11.590;2023-06-24T12:01:13;3.19;;;3.36;;
14890;SDS011;7537;48.014;11.590;2023-06-24T12:06:40;3.36;;;3.30;;
14890;SDS011;7537;48.014;11.590;2023-06-24T12:12:08;3.20;;;3.27;;
14890;SDS011;7537;48.014;11.590;2023-06-24T12:17:36;3.59;;;3.66;;
14890;SDS011;7537;48.014;11.590;2023-06-24T12:23:07;3.19;;;3.28;;
14890;SDS011;7537;48.014;11.590;2023-06-24T12:28:34;2.87;;;2.99;;
14890;SDS011;7537;48.014;11.590;2023-06-24T12:34:02;3.62;;;3.78;;
14890;SDS011;7537;48.014;11.590;2023-06-24T12:39:29;3.70;;;3.82;;
14890;SDS011;7537;48.014;11.590;2023-06-24T12:44:56;4.05;;;4.09;;
14890;SDS011;7537;48.014;11.590;2023-06-24T12:50:24;3.67;;;3.65;;
14890;SDS011;7537;48.014;11.590;2023-06-24T12:55:55;3.79;;;3.81;;
14890;SDS011;7537;48.014;11.590;2023-06-24T13:01:23;3.62;;;3.64;;
14890;SDS011;7537;48.014;11.590;2023-06-24T13:06:52;3.36;;;3.50;;
14890;SDS011;7537;48.014;11.590;2023-06-24T13:12:19;2.87;;;2.99;;
14890;SDS011;7537;48.014;11.590;2023-06-24T13:17:47;3.00;;;3.12;;
14890;SDS011;7537;48.014;11.590;2023-06-24T13:23:14;3.41;;;3.50;;
14890;SDS011;7537;48.014;11.590;2023-06-24T13:28:42;3.42;;;3.33;;
14890;SDS011;7537;48.014;11.590;2023-06-24T13:34:09;2.99;;;3.09;;
14890;SDS011;7537;48.014;11.590;2023-06-24T13:39:37;4.08;;;3.71;;
14890;SDS011;7537;48.014;11.590;2023-06-24T13:45:05;3.45;;;3.56;;
14890;SDS011;7537;48.014;11.590;2023-06-24T13:50:34;3.82;;;3.90;;
14890;SDS011;7537;48.014;11.590;2023-06-24T13:56:05;3.00;;;3.06;;
14890;SDS011;7537;48.014;11.590;2023-06-24T14:01:32;2.72;;;2.82;;
14890;SDS011;7537;48.014;11.590;2023-06-24T14:07:00;3.16;;;3.25;;
14890;SDS011;7537;48.014;11.590;2023-06-24T14:12:27;2.92;;;2.97;;
14890;SDS011;7537;48.014;11.590;2023-06-24T14:17:56;2.96;;;3.08;;
14890;SDS011;7537;48.014;11.590;2023-06-24T14:23:23;3.14;;;3.28;;
14890;SDS011;7537;48.014;11.590;2023-06-24T14:28:51;3.18;;;3.32;;
14890;SDS011;7537;48.014;11.590;2023-06-24T14:34:18;3.32;;;3.33;;
14890;SDS011;7537;48.014;11.590;2023-06-24T14:39:46;3.11;;;3.24;;
14890;SDS011;7537;48.014;11.590;2023-06-24T14:45:14;3.08;;;3.17;;
14890;SDS011;7537;48.014;11.590;2023-06-24T14:50:41;3.82;;;3.47;;
14890;SDS011;7537;48.014;11.590;2023-06-24T14:56:15;3.60;;;3.72;;
14890;SDS011;7537;48.014;11.590;2023-06-24T15:01:46;2.82;;;2.91;;
14890;SDS011;7537;48.014;11.590;2023-06-24T15:07:14;2.52;;;2.66;;
14890;SDS011;7537;48.014;11.590;2023-06-24T15:12:42;3.14;;;3.17;;
14890;SDS011;7537;48.014;11.590;2023-06-24T15:18:09;2.91;;;3.06;;
14890;SDS011;7537;48.014;11.590;2023-06-24T15:23:37;3.03;;;3.15;;
14890;SDS011;7537;48.014;11.590;2023-06-24T15:29:04;3.47;;;3.20;;
14890;SDS011;7537;48.014;11.590;2023-06-24T15:34:32;3.94;;;3.46;;
14890;SDS011;7537;48.014;11.590;2023-06-24T15:39:59;3.03;;;2.96;;
14890;SDS011;7537;48.014;11.590;2023-06-24T15:45:27;3.12;;;3.28;;
14890;SDS011;7537;48.014;11.590;2023-06-24T15:50:54;3.50;;;3.62;;
14890;SDS011;7537;48.014;11.590;2023-06-24T15:56:25;3.79;;;3.17;;
14890;SDS011;7537;48.014;11.590;2023-06-24T16:01:53;2.63;;;2.78;;
14890;SDS011;7537;48.014;11.590;2023-06-24T16:07:20;3.07;;;3.17;;
14890;SDS011;7537;48.014;11.590;2023-06-24T16:12:48;2.79;;;2.90;;
14890;SDS011;7537;48.014;11.590;2023-06-24T16:18:15;3.99;;;3.73;;
14890;SDS011;7537;48.014;11.590;2023-06-24T16:23:46;3.64;;;3.59;;
14890;SDS011;7537;48.014;11.590;2023-06-24T16:29:13;3.31;;;3.21;;
14890;SDS011;7537;48.014;11.590;2023-06-24T16:34:42;3.42;;;3.56;;
14890;SDS011;7537;48.014;11.590;2023-06-24T16:40:10;3.44;;;3.53;;
14890;SDS011;7537;48.014;11.590;2023-06-24T16:45:38;2.74;;;2.81;;
14890;SDS011;7537;48.014;11.590;2023-06-24T16:51:06;3.57;;;3.62;;
14890;SDS011;7537;48.014;11.590;2023-06-24T16:56:37;3.36;;;3.48;;
14890;SDS011;7537;48.014;11.590;2023-06-24T17:02:05;4.27;;;3.69;;
14890;SDS011;7537;48.014;11.590;2023-06-24T17:07:33;3.58;;;3.64;;
14890;SDS011;7537;48.014;11.590;2023-06-24T17:13:00;2.63;;;2.81;;
14890;SDS011;7537;48.014;11.590;2023-06-24T17:18:28;2.91;;;3.09;;
14890;SDS011;7537;48.014;11.590;2023-06-24T17:23:55;3.46;;;3.55;;
14890;SDS011;7537;48.014;11.590;2023-06-24T17:29:23;3.76;;;3.69;;
14890;SDS011;7537;48.014;11.590;2023-06-24T17:34:50;2.89;;;2.97;;
14890;SDS011;7537;48.014;11.590;2023-06-24T17:40:18;3.47;;;3.06;;
14890;SDS011;7537;48.014;11.590;2023-06-24T17:45:46;3.54;;;3.63;;
14890;SDS011;7537;48.014;11.590;2023-06-24T17:51:14;3.02;;;3.14;;
14890;SDS011;7537;48.014;11.590;2023-06-24T17:56:50;3.36;;;3.21;;
14890;SDS011;7537;48.014;11.590;2023-06-24T18:02:17;3.13;;;3.22;;
14890;SDS011;7537;48.014;11.590;2023-06-24T18:07:45;3.39;;;2.99;;
14890;SDS011;7537;48.014;11.590;2023-06-24T18:13:12;3.09;;;3.18;;
14890;SDS011;7537;48.014;11.590;2023-06-24T18:18:39;4.43;;;4.50;;
14890;SDS011;7537;48.014;11.590;2023-06-24T18:24:07;3.83;;;3.94;;
14890;SDS011;7537;48.014;11.590;2023-06-24T18:29:33;3.05;;;3.22;;
14890;SDS011;7537;48.014;11.590;2023-06-24T18:35:01;3.69;;;3.69;;
14890;SDS011;7537;48.014;11.590;2023-06-24T18:40:28;4.38;;;3.74;;
14890;SDS011;7537;48.014;11.590;2023-06-24T18:45:56;3.50;;;3.53;;
14890;SDS011;7537;48.014;11.590;2023-06-24T18:51:23;9.14;;;3.62;;
14890;SDS011;7537;48.014;11.590;2023-06-24T18:56:54;3.06;;;3.07;;
14890;SDS011;7537;48.014;11.590;2023-06-24T19:02:22;3.07;;;3.16;;
14890;SDS011;7537;48.014;11.590;2023-06-24T19:07:50;3.40;;;3.48;;
14890;SDS011;7537;48.014;11.590;2023-06-24T19:13:17;3.73;;;3.87;;
14890;SDS011;7537;48.014;11.590;2023-06-24T19:18:44;3.14;;;3.28;;
14890;SDS011;7537;48.014;11.590;2023-06-24T19:24:12;3.35;;;3.48;;
14890;SDS011;7537;48.014;11.590;2023-06-24T19:29:39;3.38;;;3.47;;
14890;SDS011;7537;48.014;11.590;2023-06-24T19:35:07;4.72;;;4.07;;
14890;SDS011;7537;48.014;11.590;2023-06-24T19:40:35;3.65;;;3.66;;
14890;SDS011;7537;48.014;11.590;2023-06-24T19:46:06;3.51;;;3.40;;
14890;SDS011;7537;48.014;11.590;2023-06-24T19:51:34;3.79;;;3.87;;
14890;SDS011;7537;48.014;11.590;2023-06-24T19:57:10;3.36;;;3.45;;
14890;SDS011;7537;48.014;11.590;2023-06-24T20:02:41;4.14;;;4.30;;
14890;SDS011;7537;48.014;11.590;2023-06-24T20:08:08;4.19;;;4.06;;
14890;SDS011;7537;48.014;11.590;2023-06-24T20:13:38;5.60;;;3.97;;
14890;SDS011;7537;48.014;11.590;2023-06-24T20:19:05;3.83;;;3.98;;
14890;SDS011;7537;48.014;11.590;2023-06-24T20:24:33;4.43;;;4.51;;
14890;SDS011;7537;48.014;11.590;2023-06-24T20:30:01;3.91;;;4.09;;
14890;SDS011;7537;48.014;11.590;2023-06-24T20:35:28;4.61;;;4.70;;
14890;SDS011;7537;48.014;11.590;2023-06-24T20:40:57;3.82;;;3.96;;
14890;SDS011;7537;48.014;11.590;2023-06-24T20:46:24;3.73;;;3.81;;
14890;SDS011;7537;48.014;11.590;2023-06-24T20:52:01;7.36;;;4.26;;
14890;SDS011;7537;48.014;11.590;2023-06-24T20:57:32;4.89;;;4.73;;
14890;SDS011;7537;48.014;11.590;2023-06-24T21:02:59;4.32;;;4.40;;
14890;SDS011;7537;48.014;11.590;2023-06-24T21:08:27;4.29;;;4.33;;
14890;SDS011;7537;48.014;11.590;2023-06-24T21:13:54;5.18;;;4.77;;
14890;SDS011;7537;48.014;11.590;2023-06-24T21:19:22;4.36;;;4.49;;
14890;SDS011;7537;48.014;11.590;2023-06-24T21:24:49;5.77;;;4.70;;
14890;SDS011;7537;48.014;11.590;2023-06-24T21:30:17;4.54;;;4.64;;
14890;SDS011;7537;48.014;11.590;2023-06-24T21:35:52;5.53;;;5.47;;
14890;SDS011;7537;48.014;11.590;2023-06-24T21:41:20;4.53;;;4.56;;
14890;SDS011;7537;48.014;11.590;2023-06-24T21:46:48;7.08;;;4.48;;
14890;SDS011;7537;48.014;11.590;2023-06-24T21:52:15;4.64;;;4.72;;
14890;SDS011;7537;48.014;11.590;2023-06-24T21:57:54;4.66;;;4.66;;
14890;SDS011;7537;48.014;11.590;2023-06-24T22:03:22;5.29;;;4.69;;
14890;SDS011;7537;48.014;11.590;2023-06-24T22:08:50;4.66;;;4.37;;
14890;SDS011;7537;48.014;11.590;2023-06-24T22:14:17;5.71;;;4.49;;
14890;SDS011;7537;48.014;11.590;2023-06-24T22:19:45;5.24;;;4.82;;
14890;SDS011;7537;48.014;11.590;2023-06-24T22:25:12;7.98;;;5.42;;
14890;SDS011;7537;48.014;11.590;2023-06-24T22:30:43;4.34;;;4.46;;
14890;SDS011;7537;48.014;11.590;2023-06-24T22:36:11;4.86;;;5.01;;
14890;SDS011;7537;48.014;11.590;2023-06-24T22:41:38;4.90;;;4.74;;
14890;SDS011;7537;48.014;11.590;2023-06-24T22:47:06;5.17;;;4.66;;
14890;SDS011;7537;48.014;11.590;2023-06-24T22:52:34;4.63;;;4.51;;
14890;SDS011;7537;48.014;11.590;2023-06-24T22:58:10;6.40;;;4.66;;
14890;SDS011;7537;48.014;11.590;2023-06-24T23:03:37;4.38;;;4.44;;
14890;SDS011;7537;48.014;11.590;2023-06-24T23:09:05;4.48;;;4.60;;
14890;SDS011;7537;48.014;11.590;2023-06-24T23:14:33;4.99;;;4.86;;
14890;SDS011;7537;48.014;11.590;2023-06-24T23:20:01;4.53;;;4.44;;
14890;SDS011;7537;48.014;11.590;2023-06-24T23:25:33;4.60;;;4.18;;
14890;SDS011;7537;48.014;11.590;2023-06-24T23:31:00;4.57;;;4.41;;
14890;SDS011;7537;48.014;11.590;2023-06-24T23:36:28;5.10;;;4.19;;
14890;SDS011;7537;48.014;11.590;2023-06-24T23:41:56;4.14;;;4.24;;
14890;SDS011;7537;48.014;11.590;2023-06-24T23:47:25;3.94;;;4.04;;
14890;SDS011;7537;48.014;11.590;2023-06-24T23:52:52;4.63;;;4.75;;
14890;SDS011;7537;48.014;11.590;2023-06-24T23:58:26;6.84;;;4.94;;
